createdAt,value
2018-01-26T00:42:14.706Z,12.60
2018-01-26T00:44:42.442Z,22.40
2018-01-26T00:47:10.765Z,19.23
2018-01-26T00:49:38.350Z,16.27
2018-01-26T00:52:05.963Z,10.75
2018-01-26T00:54:33.496Z,8.25
2018-01-26T00:57:01.834Z,10.60
2018-01-26T00:59:29.382Z,9.32
2018-01-26T01:01:56.944Z,6.55
2018-01-26T01:04:24.486Z,5.72
2018-01-26T01:06:52.021Z,6.50
2018-01-26T01:09:20.408Z,5.43
2018-01-26T01:11:48.751Z,7.70
2018-01-26T01:14:16.467Z,8.77
2018-01-26T01:16:44.804Z,8.18
2018-01-26T01:19:12.368Z,8.52
2018-01-26T01:21:39.916Z,7.18
2018-01-26T01:24:07.476Z,7.53
2018-01-26T01:26:35.028Z,8.95
2018-01-26T01:29:02.577Z,22.35
2018-01-26T01:31:30.142Z,21.00
2018-01-26T01:33:57.693Z,19.35
2018-01-26T01:36:25.283Z,20.10
2018-01-26T01:38:52.838Z,13.68
2018-01-26T01:41:20.409Z,12.32
2018-01-26T01:43:47.957Z,11.18
2018-01-26T01:46:15.586Z,10.75
2018-01-26T01:48:43.136Z,8.77
2018-01-26T01:51:10.741Z,9.85
2018-01-26T01:53:38.388Z,10.85
2018-01-26T01:56:05.949Z,9.95
2018-01-26T01:58:33.485Z,11.60
2018-01-26T02:01:01.802Z,9.05
2018-01-26T02:03:29.345Z,12.10
2018-01-26T02:05:57.059Z,7.10
2018-01-26T02:08:24.616Z,9.30
2018-01-26T02:10:52.161Z,6.70
2018-01-26T02:13:19.732Z,6.50
2018-01-26T02:15:47.294Z,7.10
2018-01-26T02:18:14.840Z,7.60
2018-01-26T02:20:42.560Z,9.50
2018-01-26T02:23:10.881Z,6.37
2018-01-26T02:25:38.444Z,10.18
2018-01-26T02:28:05.993Z,6.15
2018-01-26T02:30:33.572Z,6.18
2018-01-26T02:33:01.120Z,5.28
2018-01-26T02:35:28.792Z,12.63
2018-01-26T02:37:56.336Z,8.07
2018-01-26T02:40:23.929Z,8.48
2018-01-26T02:42:51.477Z,5.22
2018-01-26T02:45:19.052Z,12.55
2018-01-26T02:47:46.601Z,9.77
2018-01-26T02:50:14.170Z,8.73
2018-01-26T02:52:41.931Z,4.97
2018-01-26T02:55:09.468Z,6.37
2018-01-26T02:57:37.778Z,9.82
2018-01-26T03:00:05.338Z,8.65
2018-01-26T03:02:32.966Z,9.40
2018-01-26T03:05:01.328Z,6.22
2018-01-26T03:07:28.870Z,7.22
2018-01-26T03:09:56.423Z,6.90
2018-01-26T03:12:24.087Z,7.78
2018-01-26T03:14:51.643Z,9.23
2018-01-26T03:17:19.493Z,6.72
2018-01-26T03:19:47.033Z,6.07
2018-01-26T03:22:14.697Z,9.60
2018-01-26T03:24:42.242Z,9.55
2018-01-26T03:27:10.541Z,10.38
2018-01-26T03:29:38.100Z,9.70
2018-01-26T03:32:05.657Z,8.30
2018-01-26T03:34:33.962Z,7.60
2018-01-26T03:37:01.552Z,8.68
2018-01-26T03:39:29.099Z,7.28
2018-01-26T03:41:56.664Z,7.75
2018-01-26T03:44:24.284Z,7.12
2018-01-26T03:46:51.873Z,11.75
2018-01-26T03:49:19.424Z,8.07
2018-01-26T03:51:47.081Z,6.20
2018-01-26T03:54:15.590Z,6.60
2018-01-26T03:56:43.298Z,6.62
2018-01-26T03:59:10.869Z,11.12
2018-01-26T04:01:39.291Z,7.32
2018-01-26T04:04:06.843Z,11.77
2018-01-26T04:06:34.537Z,6.85
2018-01-26T04:09:02.092Z,7.15
2018-01-26T04:11:29.784Z,6.00
2018-01-26T04:13:57.396Z,7.28
2018-01-26T04:16:24.929Z,7.80
2018-01-26T04:18:53.261Z,11.50
2018-01-26T04:21:20.802Z,8.63
2018-01-26T04:23:48.361Z,7.70
2018-01-26T04:26:15.935Z,12.30
2018-01-26T04:28:43.510Z,11.63
2018-01-26T04:31:11.071Z,10.18
2018-01-26T04:33:38.616Z,10.23
2018-01-26T04:36:06.165Z,8.50
2018-01-26T04:38:33.736Z,8.98
2018-01-26T04:41:01.424Z,8.60
2018-01-26T04:43:29.001Z,10.13
2018-01-26T04:45:56.566Z,11.45
2018-01-26T04:48:24.756Z,5.32
2018-01-26T04:50:53.110Z,11.60
2018-01-26T04:53:20.798Z,8.52
2018-01-26T04:55:48.430Z,7.72
2018-01-26T04:58:15.990Z,9.20
2018-01-26T05:00:43.560Z,10.13
2018-01-26T05:03:11.108Z,8.13
2018-01-26T05:05:38.677Z,15.88
2018-01-26T05:08:06.241Z,10.80
2018-01-26T05:10:33.844Z,8.02
2018-01-26T05:13:02.173Z,7.30
2018-01-26T05:15:29.860Z,7.35
2018-01-26T05:17:57.400Z,8.57
2018-01-26T05:20:24.950Z,10.98
2018-01-26T05:22:52.520Z,10.25
2018-01-26T05:25:20.073Z,8.98
2018-01-26T05:27:47.631Z,6.80
2018-01-26T05:30:15.177Z,11.12
2018-01-26T05:32:42.913Z,9.45
2018-01-26T05:35:11.241Z,11.25
2018-01-26T05:37:38.814Z,9.00
2018-01-26T05:40:16.467Z,9.80
2018-01-26T05:42:44.820Z,15.30
2018-01-26T05:45:12.361Z,13.43
2018-01-26T05:47:39.957Z,18.98
2018-01-26T05:50:07.499Z,9.13
2018-01-26T05:52:35.272Z,10.52
2018-01-26T05:55:02.812Z,7.78
2018-01-26T05:57:30.351Z,9.13
2018-01-26T05:59:57.969Z,11.18
2018-01-26T06:02:25.741Z,11.20
2018-01-26T06:04:53.309Z,17.73
2018-01-26T06:07:21.632Z,12.30
2018-01-26T06:09:49.199Z,13.43
2018-01-26T06:12:16.776Z,10.50
2018-01-26T06:14:44.324Z,13.88
2018-01-26T06:17:11.892Z,10.38
2018-01-26T06:19:39.465Z,10.43
2018-01-26T06:22:07.016Z,15.63
2018-01-26T06:24:34.750Z,15.85
2018-01-26T06:27:02.318Z,18.23
2018-01-26T06:29:29.889Z,11.48
2018-01-26T06:31:57.454Z,10.63
2018-01-26T06:34:25.009Z,10.55
2018-01-26T06:36:52.554Z,11.60
2018-01-26T06:39:20.089Z,7.78
2018-01-26T06:41:47.646Z,10.10
2018-01-26T06:44:15.323Z,14.45
2018-01-26T06:46:43.651Z,13.45
2018-01-26T06:49:11.258Z,12.00
2018-01-26T06:51:39.569Z,10.30
2018-01-26T06:54:07.191Z,9.48
2018-01-26T06:56:34.770Z,11.70
2018-01-26T06:59:02.499Z,10.65
2018-01-26T07:01:30.032Z,8.82
2018-01-26T07:03:57.584Z,9.75
2018-01-26T07:06:25.200Z,9.88
2018-01-26T07:08:52.781Z,14.23
2018-01-26T07:11:20.339Z,15.55
2018-01-26T07:13:47.904Z,16.98
2018-01-26T07:16:15.457Z,12.02
2018-01-26T07:18:43.017Z,15.18
2018-01-26T07:21:10.604Z,13.30
2018-01-26T07:23:38.197Z,10.00
2018-01-26T07:26:06.545Z,14.65
2018-01-26T07:28:34.092Z,15.63
2018-01-26T07:31:01.686Z,14.68
2018-01-26T07:33:29.248Z,18.80
2018-01-26T07:35:56.818Z,13.68
2018-01-26T07:38:24.579Z,13.27
2018-01-26T07:40:52.152Z,17.37
2018-01-26T07:43:19.698Z,14.93
2018-01-26T07:45:47.255Z,11.57
2018-01-26T07:48:14.978Z,12.35
2018-01-26T07:50:43.326Z,9.95
2018-01-26T07:53:10.890Z,15.23
2018-01-26T07:55:38.498Z,17.52
2018-01-26T07:58:06.869Z,14.40
2018-01-26T08:00:35.214Z,9.52
2018-01-26T08:03:02.834Z,11.90
2018-01-26T08:05:30.391Z,12.57
2018-01-26T08:07:57.971Z,12.98
2018-01-26T08:10:25.514Z,16.62
2018-01-26T08:12:53.090Z,15.35
2018-01-26T08:15:20.656Z,10.15
2018-01-26T08:17:48.217Z,14.93
2018-01-26T08:20:15.793Z,12.10
2018-01-26T08:22:43.391Z,15.85
2018-01-26T08:25:10.948Z,11.30
2018-01-26T08:27:38.529Z,14.77
2018-01-26T08:30:06.860Z,10.70
2018-01-26T08:32:34.412Z,12.82
2018-01-26T08:35:01.971Z,14.10
2018-01-26T08:37:29.577Z,17.65
2018-01-26T08:39:57.149Z,14.90
2018-01-26T08:42:24.688Z,14.27
2018-01-26T08:44:52.380Z,16.80
2018-01-26T08:47:20.726Z,13.87
2018-01-26T08:49:48.282Z,14.40
2018-01-26T08:52:15.835Z,14.73
2018-01-26T08:54:43.535Z,15.10
2018-01-26T08:57:11.876Z,15.40
2018-01-26T08:59:39.432Z,13.73
2018-01-26T09:02:06.989Z,21.70
2018-01-26T09:04:34.643Z,16.23
2018-01-26T09:07:02.196Z,11.43
2018-01-26T09:09:30.504Z,15.80
2018-01-26T09:11:58.058Z,16.00
2018-01-26T09:14:25.637Z,16.20
2018-01-26T09:16:53.190Z,13.67
2018-01-26T09:19:20.757Z,14.00
2018-01-26T09:21:48.480Z,12.10
2018-01-26T09:24:16.071Z,17.30
2018-01-26T09:26:43.625Z,9.50
2018-01-26T09:29:11.195Z,11.07
2018-01-26T09:31:38.736Z,10.53
2018-01-26T09:34:07.250Z,10.90
2018-01-26T09:36:34.902Z,12.97
2018-01-26T09:39:02.478Z,8.63
2018-01-26T09:41:31.029Z,11.30
2018-01-26T09:43:58.634Z,6.63
2018-01-26T09:46:26.305Z,10.07
2018-01-26T09:48:53.886Z,8.87
2018-01-26T09:51:21.446Z,6.70
2018-01-26T09:53:49.111Z,12.27
2018-01-26T09:56:17.482Z,8.90
2018-01-26T09:58:45.031Z,13.67
2018-01-26T10:01:12.608Z,10.30
2018-01-26T10:03:40.176Z,10.60
2018-01-26T10:06:07.774Z,12.17
2018-01-26T10:08:35.290Z,9.30
2018-01-26T10:11:03.783Z,8.13
2018-01-26T10:13:31.382Z,14.23
2018-01-26T10:15:58.929Z,8.00
2018-01-26T10:18:27.256Z,12.40
2018-01-26T10:20:54.805Z,12.13
2018-01-26T10:23:22.358Z,9.30
2018-01-26T10:25:49.980Z,9.63
2018-01-26T10:28:17.516Z,13.20
2018-01-26T10:30:45.082Z,12.03
2018-01-26T10:33:12.649Z,10.63
2018-01-26T10:35:40.220Z,8.87
2018-01-26T10:38:07.811Z,14.63
2018-01-26T10:40:35.332Z,8.00
2018-01-26T10:43:02.905Z,8.73
2018-01-26T10:45:30.593Z,10.03
2018-01-26T10:47:58.912Z,8.20
2018-01-26T10:50:26.534Z,8.60
2018-01-26T10:52:54.865Z,8.30
2018-01-26T10:55:22.498Z,9.53
2018-01-26T10:57:50.011Z,6.37
2018-01-26T11:00:17.769Z,7.67
2018-01-26T11:02:45.332Z,11.07
2018-01-26T11:05:13.708Z,8.20
2018-01-26T11:07:41.282Z,13.03
2018-01-26T11:10:08.854Z,9.83
2018-01-26T11:12:36.414Z,13.40
2018-01-26T11:15:03.982Z,6.77
2018-01-26T11:17:32.354Z,8.70
2018-01-26T11:19:59.938Z,14.27
2018-01-26T11:22:27.541Z,13.20
2018-01-26T11:24:55.121Z,11.37
2018-01-26T11:27:22.673Z,15.33
2018-01-26T11:29:50.432Z,13.73
2018-01-26T11:32:17.999Z,11.70
2018-01-26T11:34:45.593Z,11.57
2018-01-26T11:37:13.938Z,7.83
2018-01-26T11:39:41.509Z,10.13
2018-01-26T11:42:09.101Z,13.67
2018-01-26T11:44:37.430Z,15.20
2018-01-26T11:47:05.161Z,12.03
2018-01-26T11:49:32.757Z,8.23
2018-01-26T11:52:01.171Z,14.23
2018-01-26T11:54:28.728Z,8.60
2018-01-26T11:56:56.286Z,9.30
2018-01-26T11:59:23.828Z,10.57
2018-01-26T12:01:51.394Z,13.00
2018-01-26T12:04:18.963Z,8.20
2018-01-26T12:06:46.557Z,10.10
2018-01-26T12:09:14.870Z,11.23
2018-01-26T12:11:42.430Z,8.03
2018-01-26T12:14:09.980Z,10.70
2018-01-26T12:16:37.537Z,9.50
2018-01-26T12:19:05.089Z,13.63
2018-01-26T12:21:32.722Z,9.23
2018-01-26T12:24:01.076Z,10.43
2018-01-26T12:26:28.686Z,10.57
2018-01-26T12:28:57.004Z,23.27
2018-01-26T12:31:24.616Z,17.73
2018-01-26T12:33:53.166Z,19.80
2018-01-26T12:36:20.733Z,12.33
2018-01-26T12:38:48.286Z,44.23
2018-01-26T12:41:15.842Z,22.47
2018-01-26T12:43:43.406Z,12.87
2018-01-26T12:46:10.985Z,21.00
2018-01-26T12:48:38.534Z,23.53
2018-01-26T12:51:06.097Z,17.23
2018-01-26T12:53:33.655Z,22.63
2018-01-26T12:56:01.210Z,13.27
2018-01-26T12:58:29.748Z,13.83
2018-01-26T13:00:57.380Z,10.43
2018-01-26T13:03:24.954Z,14.57
2018-01-26T13:05:52.542Z,10.20
2018-01-26T13:08:20.095Z,15.10
2018-01-26T13:10:48.521Z,12.03
2018-01-26T13:13:16.080Z,11.90
2018-01-26T13:15:43.641Z,13.23
2018-01-26T13:18:11.203Z,11.10
2018-01-26T13:20:38.843Z,10.40
2018-01-26T13:23:06.410Z,10.47
2018-01-26T13:25:34.122Z,9.93
2018-01-26T13:28:02.452Z,11.43
2018-01-26T13:30:30.027Z,12.93
2018-01-26T13:32:57.617Z,14.33
2018-01-26T13:35:25.981Z,10.63
2018-01-26T13:37:53.545Z,19.37
2018-01-26T13:40:21.886Z,9.97
2018-01-26T13:42:49.465Z,16.30
2018-01-26T13:45:17.048Z,16.63
2018-01-26T13:47:44.677Z,13.80
2018-01-26T13:50:12.232Z,10.00
2018-01-26T13:52:39.844Z,15.40
2018-01-26T13:55:07.440Z,19.33
2018-01-26T13:57:35.730Z,16.20
2018-01-26T14:00:03.976Z,13.87
2018-01-26T14:02:32.333Z,16.10
2018-01-26T14:04:59.890Z,9.13
2018-01-26T14:07:28.333Z,12.00
2018-01-26T14:09:55.914Z,11.77
2018-01-26T14:12:23.525Z,12.10
2018-01-26T14:14:51.880Z,13.47
2018-01-26T14:17:20.214Z,11.60
2018-01-26T14:19:47.801Z,12.93
2018-01-26T14:22:15.389Z,21.77
2018-01-26T14:24:42.947Z,14.00
2018-01-26T14:27:10.508Z,20.50
2018-01-26T14:29:38.057Z,11.30
2018-01-26T14:32:05.631Z,11.17
2018-01-26T14:34:33.206Z,14.90
2018-01-26T14:37:00.769Z,12.30
2018-01-26T14:39:29.146Z,11.57
2018-01-26T14:41:57.493Z,14.23
2018-01-26T14:44:25.183Z,13.90
2018-01-26T14:46:52.804Z,11.83
2018-01-26T14:49:20.361Z,13.40
2018-01-26T14:51:47.926Z,18.97
2018-01-26T14:54:15.487Z,20.87
2018-01-26T14:56:43.057Z,12.27
2018-01-26T14:59:10.628Z,15.10
2018-01-26T15:01:38.691Z,17.00
2018-01-26T15:04:06.320Z,10.90
2018-01-26T15:06:34.663Z,15.00
2018-01-26T15:09:02.312Z,12.00
2018-01-26T15:11:29.856Z,17.37
2018-01-26T15:13:57.449Z,16.77
2018-01-26T15:16:25.021Z,13.60
2018-01-26T15:18:52.590Z,13.45
2018-01-26T15:21:20.953Z,17.03
2018-01-26T15:23:48.498Z,18.20
2018-01-26T15:26:16.058Z,13.23
2018-01-26T15:28:43.617Z,18.23
2018-01-26T15:31:11.188Z,12.63
2018-01-26T15:33:39.486Z,20.00
2018-01-26T15:36:07.076Z,18.63
2018-01-26T15:38:34.667Z,17.40
2018-01-26T15:41:02.233Z,17.98
2018-01-26T15:43:29.800Z,17.80
2018-01-26T15:45:57.468Z,14.13
2018-01-26T15:48:25.010Z,18.52
2018-01-26T15:50:52.653Z,27.48
2018-01-26T15:53:20.248Z,14.38
2018-01-26T15:55:47.821Z,19.87
2018-01-26T15:58:15.392Z,15.73
2018-01-26T16:00:43.858Z,14.70
2018-01-26T16:03:11.439Z,15.57
2018-01-26T16:05:39.065Z,16.67
2018-01-26T16:08:06.966Z,19.58
2018-01-26T16:10:34.614Z,14.70
2018-01-26T16:13:02.183Z,12.88
2018-01-26T16:15:29.865Z,13.07
2018-01-26T16:17:58.205Z,26.62
2018-01-26T16:20:25.797Z,23.02
2018-01-26T16:22:53.354Z,28.50
2018-01-26T16:25:20.941Z,25.42
2018-01-26T16:27:48.517Z,24.27
2018-01-26T16:30:16.874Z,26.58
2018-01-26T16:32:44.580Z,27.50
2018-01-26T16:35:12.906Z,25.77
2018-01-26T16:37:40.473Z,18.87
2018-01-26T16:40:08.053Z,18.70
2018-01-26T16:42:36.360Z,17.00
2018-01-26T16:45:04.847Z,21.85
2018-01-26T16:47:32.434Z,17.48
2018-01-26T16:49:59.998Z,18.77
2018-01-26T16:52:27.665Z,20.05
2018-01-26T16:54:55.289Z,15.05
2018-01-26T16:57:23.924Z,27.05
2018-01-26T16:59:51.497Z,18.37
2018-01-26T17:02:19.093Z,21.40
2018-01-26T17:04:47.421Z,19.90
2018-01-26T17:07:14.981Z,22.33
2018-01-26T17:09:42.730Z,20.65
2018-01-26T17:12:10.358Z,24.73
2018-01-26T17:14:38.050Z,21.37
2018-01-26T17:17:05.650Z,12.95
2018-01-26T17:19:33.254Z,14.23
2018-01-26T17:22:01.605Z,16.98
2018-01-26T17:24:29.167Z,18.05
2018-01-26T17:26:56.789Z,17.20
2018-01-26T17:29:24.336Z,19.70
2018-01-26T17:31:52.710Z,19.77
2018-01-26T17:34:21.056Z,23.45
2018-01-26T17:36:48.879Z,23.52
2018-01-26T17:39:16.461Z,18.42
2018-01-26T17:41:44.033Z,25.67
2018-01-26T17:44:12.604Z,22.60
2018-01-26T17:46:40.206Z,22.25
2018-01-26T17:49:08.009Z,30.40
2018-01-26T17:51:35.653Z,22.23
2018-01-26T17:54:04.016Z,17.58
2018-01-26T17:56:31.582Z,15.25
2018-01-26T17:58:59.962Z,22.37
2018-01-26T18:01:28.292Z,26.60
2018-01-26T18:03:55.853Z,22.25
2018-01-26T18:06:23.418Z,21.40
2018-01-26T18:08:50.991Z,31.62
2018-01-26T18:11:18.583Z,25.05
2018-01-26T18:13:46.145Z,38.25
2018-01-26T18:16:13.909Z,52.05
2018-01-26T18:18:41.522Z,45.17
2018-01-26T18:21:09.133Z,50.35
2018-01-26T18:23:37.549Z,89.68
2018-01-26T18:26:05.918Z,108.50
2018-01-26T18:28:33.493Z,56.92
2018-01-26T18:31:01.116Z,57.17
2018-01-26T18:33:28.719Z,56.70
2018-01-26T18:35:57.130Z,40.25
2018-01-26T18:38:24.785Z,41.15
2018-01-26T18:40:53.163Z,33.85
2018-01-26T18:43:20.759Z,42.58
2018-01-26T18:45:48.350Z,38.42
2018-01-26T18:48:15.946Z,28.02
2018-01-26T18:50:43.514Z,31.35
2018-01-26T18:53:11.150Z,36.42
2018-01-26T18:55:39.549Z,75.75
2018-01-26T18:58:08.029Z,36.72
2018-01-26T19:00:35.657Z,33.97
2018-01-26T19:03:03.227Z,43.45
2018-01-26T19:05:30.837Z,32.88
2018-01-26T19:07:58.441Z,26.37
2018-01-26T19:10:26.010Z,31.95
2018-01-26T19:12:53.607Z,36.55
2018-01-26T19:15:21.292Z,30.55
2018-01-26T19:17:48.943Z,26.12
2018-01-26T19:20:16.721Z,25.92
2018-01-26T19:22:44.491Z,30.12
2018-01-26T19:25:12.088Z,37.20
2018-01-26T19:27:40.411Z,31.48
2018-01-26T19:30:07.988Z,28.62
2018-01-26T19:32:35.639Z,37.00
2018-01-26T19:35:03.418Z,31.27
2018-01-26T19:37:31.169Z,35.95
2018-01-26T19:39:58.689Z,37.53
2018-01-26T19:42:26.258Z,38.35
2018-01-26T19:44:54.169Z,38.13
2018-01-26T19:47:21.793Z,38.63
2018-01-26T19:49:49.599Z,40.88
2018-01-26T19:52:17.231Z,40.65
2018-01-26T19:54:45.562Z,34.78
2018-01-26T19:57:13.174Z,30.50
2018-01-26T19:59:41.892Z,29.00
2018-01-26T20:02:09.840Z,32.25
2018-01-26T20:04:43.570Z,31.10
2018-01-26T20:07:29.133Z,30.20
2018-01-26T20:09:56.720Z,26.25
2018-01-26T20:12:24.283Z,31.85
2018-01-26T20:14:52.020Z,26.05
2018-01-26T20:17:20.639Z,25.55
2018-01-26T20:19:48.609Z,28.40
2018-01-26T20:22:16.317Z,26.58
2018-01-26T20:24:43.889Z,26.02
2018-01-26T20:27:11.616Z,28.98
2018-01-26T20:29:39.210Z,27.45
2018-01-26T20:32:07.603Z,31.17
2018-01-26T20:34:35.967Z,29.52
2018-01-26T20:37:04.323Z,30.65
2018-01-26T20:39:32.198Z,39.08
2018-01-26T20:42:00.251Z,33.33
2018-01-26T20:44:27.861Z,37.35
2018-01-26T20:46:55.499Z,34.85
2018-01-26T20:49:23.138Z,36.22
2018-01-26T20:51:52.040Z,36.05
2018-01-26T20:54:19.737Z,40.12
2018-01-26T20:56:47.483Z,37.08
2018-01-26T20:59:15.046Z,33.83
2018-01-26T21:01:42.725Z,35.03
2018-01-26T21:04:10.442Z,37.60
2018-01-26T21:06:38.339Z,33.78
2018-01-26T21:09:06.387Z,39.58
2018-01-26T21:11:34.185Z,32.85
2018-01-26T21:14:02.091Z,30.92
2018-01-26T21:16:30.583Z,34.60
2018-01-26T21:18:59.331Z,30.08
2018-01-26T21:21:26.934Z,35.33
2018-01-26T21:23:55.264Z,28.90
2018-01-26T21:26:22.882Z,34.13
2018-01-26T21:28:51.241Z,31.02
2018-01-26T21:31:18.777Z,34.65
2018-01-26T21:33:46.341Z,33.22
2018-01-26T21:36:15.554Z,35.03
2018-01-26T21:38:43.129Z,32.75
2018-01-26T21:41:11.495Z,38.72
2018-01-26T21:43:39.057Z,30.35
2018-01-26T21:46:06.634Z,34.42
2018-01-26T21:48:34.946Z,37.78
2018-01-26T21:51:02.505Z,37.88
2018-01-26T21:53:30.070Z,35.72
2018-01-26T21:55:57.644Z,37.58
2018-01-26T21:58:25.257Z,36.45
2018-01-26T22:00:53.772Z,41.67
2018-01-26T22:03:21.370Z,35.70
2018-01-26T22:05:48.913Z,43.40
2018-01-26T22:08:16.460Z,36.17
2018-01-26T22:10:44.029Z,36.95
2018-01-26T22:13:11.637Z,33.83
2018-01-26T22:15:39.204Z,41.83
2018-01-26T22:18:06.784Z,40.20
2018-01-26T22:20:35.116Z,31.02
2018-01-26T22:23:02.674Z,38.25
2018-01-26T22:25:30.237Z,37.40
2018-01-26T22:27:57.913Z,45.97
2018-01-26T22:30:25.452Z,38.03
2018-01-26T22:32:53.165Z,34.05
2018-01-26T22:35:20.738Z,46.42
2018-01-26T22:37:48.339Z,37.65
2018-01-26T22:40:15.893Z,42.17
2018-01-26T22:42:43.600Z,44.28
2018-01-26T22:45:13.314Z,45.50
2018-01-26T22:47:40.973Z,47.75
2018-01-26T22:50:08.543Z,43.17
2018-01-26T22:52:36.109Z,37.35
2018-01-26T22:55:04.467Z,38.20
2018-01-26T22:57:32.134Z,39.97
2018-01-26T22:59:59.715Z,41.37
2018-01-26T23:02:28.033Z,35.42
2018-01-26T23:04:55.612Z,42.35
2018-01-26T23:07:23.190Z,38.83
2018-01-26T23:09:50.758Z,43.55
2018-01-26T23:12:18.342Z,51.53
2018-01-26T23:14:46.715Z,49.72
2018-01-26T23:17:14.285Z,47.28
2018-01-26T23:19:42.643Z,55.22
2018-01-26T23:22:10.220Z,97.60
2018-01-26T23:24:37.770Z,91.40
2018-01-26T23:27:05.330Z,89.97
2018-01-26T23:29:32.878Z,96.90
2018-01-26T23:32:00.481Z,58.72
2018-01-26T23:34:30.386Z,58.10
2018-01-26T23:36:58.750Z,64.00
2018-01-26T23:39:26.363Z,50.17
2018-01-26T23:41:53.917Z,40.55
2018-01-26T23:44:21.566Z,39.97
2018-01-26T23:46:49.899Z,44.38
2018-01-26T23:49:17.464Z,42.08
2018-01-26T23:51:45.029Z,48.15
2018-01-26T23:54:12.608Z,59.47
2018-01-26T23:56:40.212Z,40.92
2018-01-26T23:59:07.760Z,40.78
